Time;durP1;ratioP1;P1;durP2;ratioP2;P2;SDS_P1;SDS_P2;PMS_P1;PMS_P2;Temp;Humidity;BMP_temperature;BMP_pressure;BME280_temperature;BME280_humidity;BME280_pressure;Samples;Min_cycle;Max_cycle;Signal;HPM_P1;HPM_P2
2021/01/28 00:01:55;;;;;;;14.17;8.60;;;;;;;-2.51;76.61;100010.06;4935368;29;20399;-71
2021/01/28 00:04:20;;;;;;;15.10;9.97;;;;;;;-2.38;76.75;100020.44;4935356;29;20381;-72
2021/01/28 00:06:46;;;;;;;14.60;9.67;;;;;;;-2.44;76.15;99984.53;4934846;29;20031;-73
2021/01/28 00:09:11;;;;;;;16.33;9.00;;;;;;;-2.29;75.65;100005.13;4935266;29;20031;-73
2021/01/28 00:11:37;;;;;;;141.97;44.47;;;;;;;-2.19;75.84;100012.66;4935158;29;20036;-72
2021/01/28 00:14:02;;;;;;;14.17;8.87;;;;;;;-2.26;75.46;100000.28;4934781;29;20431;-74
2021/01/28 00:16:28;;;;;;;16.63;10.57;;;;;;;-2.18;76.08;100005.97;4934847;29;20035;-75
2021/01/28 00:18:54;;;;;;;14.93;10.50;;;;;;;-2.21;75.64;100011.66;4935080;29;20510;-77
2021/01/28 00:21:19;;;;;;;14.47;8.67;;;;;;;-2.14;75.06;100018.09;4934749;29;20028;-74
2021/01/28 00:23:45;;;;;;;15.93;10.07;;;;;;;-2.16;75.30;100001.91;4934876;29;20036;-74
2021/01/28 00:26:11;;;;;;;13.43;9.47;;;;;;;-2.20;74.91;100003.31;4934806;29;20030;-75
2021/01/28 00:28:37;;;;;;;15.17;9.80;;;;;;;-2.33;75.04;99965.16;4934904;29;20031;-74
2021/01/28 00:31:02;;;;;;;15.50;9.83;;;;;;;-2.21;75.07;99988.91;4934741;29;20032;-78
2021/01/28 00:33:27;;;;;;;11.73;7.07;;;;;;;-2.20;74.47;99984.75;4934918;29;20095;-72
2021/01/28 00:35:55;;;;;;;17.60;10.30;;;;;;;-2.06;74.97;100003.53;4934662;29;20507;-77
2021/01/28 00:38:27;;;;;;;17.00;9.67;;;;;;;-2.06;74.12;100011.13;4934265;29;20495;-75
2021/01/28 00:40:53;;;;;;;12.30;6.03;;;;;;;-2.31;74.41;99988.94;4934693;29;20091;-77
2021/01/28 00:43:19;;;;;;;13.67;9.03;;;;;;;-2.26;74.80;100004.47;4934660;29;20043;-75
2021/01/28 00:45:45;;;;;;;23.90;12.70;;;;;;;-2.17;74.39;100006.09;4934343;29;20475;-78
2021/01/28 00:48:11;;;;;;;16.17;10.87;;;;;;;-2.26;75.01;100012.06;4934210;29;20047;-76
2021/01/28 00:50:39;;;;;;;20.03;9.47;;;;;;;-2.57;75.15;99952.31;4934393;29;20098;-74
2021/01/28 00:53:06;;;;;;;15.73;10.03;;;;;;;-2.21;74.64;100009.13;4934704;29;20036;-76
2021/01/28 00:55:31;;;;;;;15.00;9.03;;;;;;;-2.14;74.40;100005.47;4934506;29;20107;-73
2021/01/28 00:57:56;;;;;;;17.00;9.90;;;;;;;-2.18;75.11;100009.38;4949151;29;20066;-73
2021/01/28 01:00:40;;;;;;;12.83;7.43;;;;;;;-2.24;74.47;99997.88;4934204;29;20463;-74
2021/01/28 01:03:09;;;;;;;16.37;9.80;;;;;;;-2.45;75.01;99955.84;4933752;29;20114;-75
2021/01/28 01:05:38;;;;;;;17.65;10.75;;;;;;;-2.05;74.50;100007.84;4934505;29;20399;-75
2021/01/28 01:08:10;;;;;;;18.13;11.43;;;;;;;-2.08;74.51;100000.00;4934336;29;20035;-73
2021/01/28 01:10:40;;;;;;;13.57;8.50;;;;;;;-2.24;75.13;100019.00;4934268;29;20028;-71
2021/01/28 01:13:07;;;;;;;16.43;10.13;;;;;;;-2.22;75.40;100017.47;4934153;29;20039;-73
2021/01/28 01:15:33;;;;;;;15.83;8.90;;;;;;;-2.26;74.81;100012.94;4933601;29;20028;-75
2021/01/28 01:17:58;;;;;;;14.63;8.97;;;;;;;-2.33;75.21;100013.19;4934327;29;20084;-77
2021/01/28 01:20:24;;;;;;;16.53;9.50;;;;;;;-2.34;75.95;100012.31;4933826;29;20539;-75
2021/01/28 01:22:49;;;;;;;19.47;9.80;;;;;;;-2.26;75.29;100015.47;4934234;29;20119;-74
2021/01/28 01:25:17;;;;;;;12.83;7.27;;;;;;;-2.29;74.73;100017.75;4934244;29;20038;-74
2021/01/28 01:27:42;;;;;;;19.10;12.67;;;;;;;-2.37;74.82;99985.91;4938003;29;20059;-75
2021/01/28 01:30:09;;;;;;;15.63;10.83;;;;;;;-2.29;75.20;99995.88;4938010;28;20521;-75
2021/01/28 01:32:35;;;;;;;10.67;6.10;;;;;;;-2.24;74.66;100008.91;4937749;29;20114;-77
2021/01/28 01:35:00;;;;;;;15.07;9.60;;;;;;;-2.32;75.12;99990.59;4938308;29;20062;-78
2021/01/28 01:37:26;;;;;;;13.60;8.50;;;;;;;-2.28;74.86;99996.75;4937763;29;20067;-77
2021/01/28 01:39:51;;;;;;;11.83;7.70;;;;;;;-2.28;75.01;100004.31;4937787;29;20563;-77
2021/01/28 01:42:17;;;;;;;15.87;10.43;;;;;;;-2.29;75.28;99995.88;4937758;29;20083;-78
2021/01/28 01:44:43;;;;;;;17.20;10.30;;;;;;;-2.49;75.05;99958.88;4937325;29;20032;-74
2021/01/28 01:47:17;;;;;;;15.93;9.50;;;;;;;-2.22;74.66;100024.19;4937785;29;20028;-75
2021/01/28 01:49:48;;;;;;;16.93;9.67;;;;;;;-2.36;75.05;100018.03;4952209;29;20038;-80
2021/01/28 01:52:15;;;;;;;15.30;9.37;;;;;;;-2.83;75.19;99925.84;4937865;29;20038;-76
2021/01/28 01:54:45;;;;;;;81.07;25.50;;;;;;;-2.27;75.55;100021.28;4937369;29;20038;-78
2021/01/28 01:57:17;;;;;;;19.20;11.23;;;;;;;-2.38;75.94;100019.53;4952151;29;20020;-74
2021/01/28 01:59:50;;;;;;;18.17;11.03;;;;;;;-2.42;75.94;100025.97;4937730;29;20031;-75
2021/01/28 02:02:19;;;;;;;27.73;21.60;;;;;;;-2.45;75.44;100024.09;4929635;29;20131;-76
2021/01/28 02:04:50;;;;;;;15.52;9.32;;;;;;;-2.57;75.61;99994.41;4947669;29;20393;-71
2021/01/28 02:07:21;;;;;;;19.73;13.37;;;;;;;-2.30;75.75;100028.63;4937580;29;20030;-72
2021/01/28 02:09:47;;;;;;;18.93;10.67;;;;;;;-2.50;75.72;100021.97;4936868;29;20114;-75
2021/01/28 02:12:12;;;;;;;17.33;10.60;;;;;;;-2.39;76.11;100036.34;4967367;28;20050;-73
2021/01/28 02:14:38;;;;;;;15.87;10.03;;;;;;;-2.50;75.90;100040.53;4937097;29;20036;-73
2021/01/28 02:17:07;;;;;;;17.87;10.97;;;;;;;-2.70;75.19;99995.94;4936825;29;20035;-73
2021/01/28 02:19:51;;;;;;;16.77;10.03;;;;;;;-2.45;75.07;100051.88;4937324;29;20038;-78
2021/01/28 02:22:31;;;;;;;17.80;10.60;;;;;;;-2.45;75.61;100046.84;4951630;28;20674;-75
2021/01/28 02:25:15;;;;;;;18.60;11.47;;;;;;;-2.35;75.69;100055.19;4950151;29;20040;-73
2021/01/28 02:27:42;;;;;;;46.57;19.83;;;;;;;-2.39;75.45;100043.94;4936791;28;20034;-72
2021/01/28 02:30:08;;;;;;;17.97;10.47;;;;;;;-2.44;75.91;100058.72;4936770;29;20102;-73
2021/01/28 02:32:34;;;;;;;15.87;9.00;;;;;;;-2.57;75.32;100034.84;4936843;29;20115;-77
2021/01/28 02:35:00;;;;;;;15.30;9.83;;;;;;;-2.50;75.50;100047.25;4937108;29;20090;-77
2021/01/28 02:37:25;;;;;;;16.70;10.43;;;;;;;-2.57;75.78;100028.13;4935773;29;20035;-75
2021/01/28 02:39:52;;;;;;;18.33;10.70;;;;;;;-2.66;75.48;100020.69;4936594;29;20078;-77
2021/01/28 02:42:37;;;;;;;17.87;11.30;;;;;;;-2.59;75.43;100034.72;4951438;29;20027;-77
2021/01/28 02:45:05;;;;;;;15.93;10.03;;;;;;;-2.50;75.27;100063.28;4936624;28;20032;-77
2021/01/28 02:47:30;;;;;;;13.37;8.57;;;;;;;-2.58;74.82;100064.28;4936757;29;20043;-77
2021/01/28 02:49:55;;;;;;;16.83;10.20;;;;;;;-2.82;75.41;100027.78;4936702;29;20395;-75
2021/01/28 02:52:21;;;;;;;16.67;10.33;;;;;;;-2.52;75.20;100062.25;4936860;29;20403;-75
2021/01/28 02:54:49;;;;;;;17.73;10.63;;;;;;;-2.42;75.14;100068.09;4936203;29;20032;-76
2021/01/28 02:57:15;;;;;;;16.63;10.40;;;;;;;-2.46;75.74;100057.69;4950994;29;20123;-75
2021/01/28 02:59:41;;;;;;;15.37;9.50;;;;;;;-2.44;74.63;100060.38;4936404;29;20035;-77
2021/01/28 03:02:10;;;;;;;14.00;8.17;;;;;;;-2.48;74.52;100061.75;4936476;29;20020;-71
2021/01/28 03:04:35;;;;;;;16.15;9.85;;;;;;;-2.65;74.43;100029.19;4936417;29;20055;-77
2021/01/28 03:07:02;;;;;;;16.07;10.07;;;;;;;-3.04;74.64;99982.16;4936109;29;20027;-74
2021/01/28 03:09:28;;;;;;;17.57;11.83;;;;;;;-2.60;74.70;100038.88;4936211;29;20030;-73
2021/01/28 03:11:53;;;;;;;16.50;10.30;;;;;;;-2.55;75.07;100069.59;4936510;29;20032;-73
2021/01/28 03:14:19;;;;;;;16.40;10.77;;;;;;;-2.52;75.10;100046.22;4935770;29;20522;-74
2021/01/28 03:16:44;;;;;;;15.70;9.90;;;;;;;-2.67;74.71;100025.63;4936338;29;20128;-76
2021/01/28 03:19:10;;;;;;;16.00;10.17;;;;;;;-2.39;74.86;100064.16;4935720;29;20032;-75
2021/01/28 03:21:35;;;;;;;15.53;9.63;;;;;;;-2.65;74.58;100041.81;4936145;29;20070;-73
2021/01/28 03:24:01;;;;;;;16.37;8.73;;;;;;;-2.67;74.74;100066.94;4936024;29;20023;-73
2021/01/28 03:26:26;;;;;;;16.90;10.80;;;;;;;-3.10;75.17;100008.69;4936269;29;20036;-74
2021/01/28 03:28:53;;;;;;;13.57;8.97;;;;;;;-2.98;75.31;100055.91;4935802;29;20039;-75
2021/01/28 03:31:19;;;;;;;17.33;10.30;;;;;;;-2.91;75.95;100072.50;4935821;29;20026;-74
2021/01/28 03:33:44;;;;;;;19.20;10.63;;;;;;;-3.00;76.10;100058.31;4935797;29;20111;-76
2021/01/28 03:36:10;;;;;;;17.40;9.87;;;;;;;-3.02;75.67;100057.28;4935682;29;20015;-75
2021/01/28 03:38:35;;;;;;;15.87;9.17;;;;;;;-3.07;75.59;100050.97;4936002;29;20110;-76
2021/01/28 03:41:01;;;;;;;15.07;8.80;;;;;;;-3.19;75.62;100048.31;4935393;29;20028;-74
2021/01/28 03:43:27;;;;;;;16.10;10.00;;;;;;;-2.95;75.95;100073.88;4935131;29;20031;-74
2021/01/28 03:45:52;;;;;;;18.90;10.30;;;;;;;-3.06;75.71;100065.38;4935590;29;20524;-76
2021/01/28 03:48:17;;;;;;;15.23;8.40;;;;;;;-3.26;75.90;100051.94;4935294;29;20483;-76
2021/01/28 03:50:43;;;;;;;15.43;9.50;;;;;;;-3.42;76.40;100027.03;4935726;29;20027;-80
2021/01/28 03:53:08;;;;;;;17.47;10.53;;;;;;;-3.04;75.56;100080.66;4935369;29;20034;-79
2021/01/28 03:55:35;;;;;;;14.43;9.33;;;;;;;-3.05;76.53;100081.41;4935490;29;20113;-73
2021/01/28 03:58:01;;;;;;;16.07;9.40;;;;;;;-3.15;76.09;100059.56;4935085;29;20076;-72
2021/01/28 04:00:31;;;;;;;14.83;8.73;;;;;;;-3.01;75.75;100081.81;4935419;29;20051;-73
2021/01/28 04:02:58;;;;;;;13.53;7.73;;;;;;;-3.13;75.42;100058.03;4935675;29;20035;-71
2021/01/28 04:05:25;;;;;;;15.47;9.20;;;;;;;-3.02;75.39;100074.97;4935060;29;20046;-69
2021/01/28 04:07:50;;;;;;;13.60;8.57;;;;;;;-2.94;75.19;100080.66;4935231;29;20032;-73
2021/01/28 04:10:20;;;;;;;17.87;10.60;;;;;;;-3.00;75.33;100067.56;4965394;28;20035;-70
2021/01/28 04:12:45;;;;;;;15.80;9.27;;;;;;;-3.05;75.15;100083.94;4935185;29;20082;-73
2021/01/28 04:15:12;;;;;;;16.07;10.27;;;;;;;-3.19;75.42;100048.31;4935081;29;20031;-73
2021/01/28 04:17:38;;;;;;;16.10;9.87;;;;;;;-3.28;75.66;100058.53;4935414;29;20032;-73
2021/01/28 04:20:06;;;;;;;15.60;10.20;;;;;;;-3.01;75.70;100096.09;4965766;28;20403;-71
2021/01/28 04:22:31;;;;;;;19.20;10.50;;;;;;;-2.99;74.79;100087.88;4935217;29;20031;-73
2021/01/28 04:24:57;;;;;;;17.07;10.50;;;;;;;-3.29;74.91;100013.84;4935043;29;20030;-74
2021/01/28 04:27:22;;;;;;;16.83;9.80;;;;;;;-2.79;74.16;100094.59;4934892;29;20035;-73
2021/01/28 04:29:48;;;;;;;19.27;10.77;;;;;;;-2.71;73.79;100104.47;4934633;29;20036;-74
2021/01/28 04:32:13;;;;;;;15.73;9.43;;;;;;;-2.95;74.20;100066.28;4931866;29;20038;-74
2021/01/28 04:34:39;;;;;;;13.43;8.80;;;;;;;-2.72;74.13;100107.75;4935342;29;20095;-73
2021/01/28 04:37:04;;;;;;;13.17;8.27;;;;;;;-2.81;73.55;100103.69;4934795;29;20063;-73
2021/01/28 04:39:30;;;;;;;14.73;8.63;;;;;;;-3.15;74.34;100067.16;4934890;29;20028;-75
2021/01/28 04:41:55;;;;;;;13.97;8.70;;;;;;;-2.87;74.56;100123.38;4934833;29;20519;-73
2021/01/28 04:44:21;;;;;;;15.33;9.27;;;;;;;-2.83;74.57;100114.41;4935313;29;20102;-73
2021/01/28 04:46:54;;;;;;;15.83;9.33;;;;;;;-2.87;75.06;100123.38;4935075;29;20167;-74
2021/01/28 04:49:21;;;;;;;13.93;8.40;;;;;;;-2.77;74.07;100114.94;4934908;29;20023;-73
2021/01/28 04:51:56;;;;;;;14.23;8.87;;;;;;;-2.70;74.61;100126.47;4934702;29;20032;-77
2021/01/28 04:54:40;;;;;;;15.23;9.70;;;;;;;-2.63;73.92;100128.72;4934718;29;20483;-73
2021/01/28 04:57:10;;;;;;;16.73;9.80;;;;;;;-2.65;74.35;100128.59;4934926;29;20024;-73
2021/01/28 04:59:44;;;;;;;15.90;10.37;;;;;;;-2.75;74.39;100123.53;4934560;29;20023;-73
2021/01/28 05:02:29;;;;;;;17.73;10.50;;;;;;;-2.60;74.79;100132.38;4934375;29;20027;-73
2021/01/28 05:04:57;;;;;;;15.57;10.17;;;;;;;-2.63;74.83;100134.69;4933354;29;20470;-74
2021/01/28 05:07:26;;;;;;;16.77;10.40;;;;;;;-2.55;74.22;100142.03;4934662;29;20028;-70
2021/01/28 05:10:09;;;;;;;16.73;10.50;;;;;;;-2.53;74.48;100143.00;4934769;29;20032;-74
2021/01/28 05:12:35;;;;;;;18.27;11.17;;;;;;;-2.62;74.00;100111.19;4934502;29;20034;-73
2021/01/28 05:15:10;;;;;;;18.03;12.67;;;;;;;-2.37;73.68;100141.00;4934372;29;20491;-73
2021/01/28 05:17:37;;;;;;;23.40;15.37;;;;;;;-2.31;73.48;100150.75;4935118;29;20031;-74
2021/01/28 05:20:06;;;;;;;19.60;13.13;;;;;;;-2.45;73.60;100132.78;4934416;29;20046;-74
2021/01/28 05:22:37;;;;;;;20.23;12.75;;;;;;;-2.38;73.42;100146.84;4934329;29;20036;-74
2021/01/28 05:25:31;;;;;;;21.37;12.93;;;;;;;-2.53;74.18;100132.91;4934307;29;20487;-73
2021/01/28 05:27:57;;;;;;;16.60;10.50;;;;;;;-2.58;74.32;100141.75;4934547;29;20023;-73
2021/01/28 05:30:43;;;;;;;16.07;10.70;;;;;;;-2.54;73.89;100139.63;4934665;29;20502;-73
2021/01/28 05:33:39;;;;;;;20.97;12.13;;;;;;;-2.78;74.07;100123.25;4934553;29;20518;-74
2021/01/28 05:36:09;;;;;;;19.43;12.37;;;;;;;-2.71;74.84;100160.06;4934321;29;20032;-73
2021/01/28 05:38:45;;;;;;;18.03;11.23;;;;;;;-2.89;74.88;100149.25;4934533;29;20039;-73
2021/01/28 05:41:25;;;;;;;18.47;10.93;;;;;;;-3.10;75.33;100145.03;4934193;29;20180;-74
2021/01/28 05:43:51;;;;;;;18.67;11.90;;;;;;;-3.01;75.63;100154.16;4934240;29;20019;-77
2021/01/28 05:46:22;;;;;;;18.13;12.00;;;;;;;-2.91;75.39;100155.84;4934084;29;20034;-74
2021/01/28 05:49:08;;;;;;;23.30;16.73;;;;;;;-3.11;74.91;100117.13;4934147;29;20028;-72
2021/01/28 05:51:38;;;;;;;18.03;11.63;;;;;;;-2.95;74.51;100158.09;4934197;29;20388;-73
2021/01/28 05:54:07;;;;;;;19.33;11.40;;;;;;;-3.36;75.02;100150.38;4933957;29;20032;-73
2021/01/28 05:56:50;;;;;;;19.17;11.20;;;;;;;-3.35;75.67;100172.34;4933049;29;20032;-73
2021/01/28 05:59:25;;;;;;;18.30;12.23;;;;;;;-3.30;75.52;100170.22;4933502;29;20059;-73
2021/01/28 06:02:09;;;;;;;17.57;11.27;;;;;;;-3.37;74.69;100172.97;4943372;29;20023;-73
2021/01/28 06:04:48;;;;;;;19.93;11.30;;;;;;;-3.62;75.73;100180.91;4934770;29;20082;-74
2021/01/28 06:07:40;;;;;;;18.05;10.48;;;;;;;-3.69;75.32;100176.94;4952398;28;20078;-74
2021/01/28 06:10:59;;;;;;;16.50;10.40;;;;;;;-3.50;74.89;100186.13;4943825;29;20120;-73
2021/01/28 06:13:30;;;;;;;16.65;10.45;;;;;;;-3.83;74.59;100140.41;4954397;29;20027;-74
2021/01/28 06:16:18;;;;;;;18.00;10.33;;;;;;;-3.43;74.52;100194.41;4954632;29;20039;-73
2021/01/28 06:19:02;;;;;;;21.80;11.37;;;;;;;-3.54;73.55;100139.53;4954536;29;20126;-71
2021/01/28 06:21:46;;;;;;;17.47;10.70;;;;;;;-3.19;73.56;100188.81;4954378;29;20522;-76
2021/01/28 06:24:26;;;;;;;17.73;10.47;;;;;;;-3.11;72.93;100182.78;4954371;29;20078;-75
2021/01/28 06:27:22;;;;;;;20.70;10.90;;;;;;;-2.83;72.19;100180.09;4952940;29;20094;-74
2021/01/28 06:29:50;;;;;;;21.10;11.70;;;;;;;-2.73;72.55;100181.78;4934237;29;20035;-71
2021/01/28 06:32:43;;;;;;;19.37;10.40;;;;;;;-2.58;71.45;100182.19;4944756;29;20123;-75
2021/01/28 06:35:11;;;;;;;17.07;9.67;;;;;;;-2.46;71.20;100195.84;4934596;29;20094;-74
2021/01/28 06:37:58;;;;;;;15.33;9.87;;;;;;;-2.70;70.53;100136.56;4935065;29;20499;-75
2021/01/28 06:40:28;;;;;;;16.93;10.33;;;;;;;-2.44;70.53;100189.31;4953933;29;20037;-73
2021/01/28 06:43:01;;;;;;;14.90;8.77;;;;;;;-2.78;71.66;100178.84;4942223;29;20422;-74
2021/01/28 06:45:32;;;;;;;11.67;6.77;;;;;;;-3.01;71.41;100139.88;4944714;29;20042;-73
2021/01/28 06:48:16;;;;;;;15.90;9.20;;;;;;;-2.88;71.01;100146.84;4946325;29;20107;-74
2021/01/28 06:50:55;;;;;;;16.97;10.03;;;;;;;-2.61;71.36;100195.44;4947379;29;20031;-74
2021/01/28 06:53:38;;;;;;;14.70;8.87;;;;;;;-2.82;71.81;100182.75;4940472;28;20031;-76
2021/01/28 06:56:31;;;;;;;19.10;11.00;;;;;;;-2.83;71.82;100188.59;4944375;29;20193;-76
2021/01/28 06:59:15;;;;;;;15.30;9.27;;;;;;;-2.66;71.79;100202.63;4943191;29;20123;-78
2021/01/28 07:02:12;;;;;;;16.63;9.83;;;;;;;-2.60;70.92;100199.75;4944589;29;20035;-74
2021/01/28 07:04:53;;;;;;;17.40;10.63;;;;;;;-2.68;71.50;100170.41;4944266;29;20055;-74
2021/01/28 07:07:23;;;;;;;18.37;10.77;;;;;;;-2.35;71.38;100215.34;4941824;29;20070;-76
2021/01/28 07:10:10;;;;;;;16.60;10.37;;;;;;;-2.36;71.32;100207.63;4944877;28;20118;-76
2021/01/28 07:12:44;;;;;;;15.40;9.70;;;;;;;-2.50;71.19;100206.47;4917522;29;20036;-76
2021/01/28 07:15:11;;;;;;;16.77;10.97;;;;;;;-2.50;71.30;100207.34;4917271;29;20088;-76
2021/01/28 07:17:42;;;;;;;23.43;13.63;;;;;;;-2.25;70.89;100219.53;4917224;29;20112;-76
2021/01/28 07:20:26;;;;;;;37.27;19.70;;;;;;;-2.17;70.49;100215.09;4931176;29;20060;-76
2021/01/28 07:22:52;;;;;;;24.27;14.57;;;;;;;-2.10;70.13;100224.97;4935945;29;20035;-76
2021/01/28 07:25:29;;;;;;;24.73;12.83;;;;;;;-2.13;70.29;100233.19;4935834;29;20115;-76
2021/01/28 07:28:05;;;;;;;15.37;9.97;;;;;;;-1.95;69.40;100226.22;4935921;29;20114;-76
2021/01/28 07:30:47;;;;;;;19.60;11.80;;;;;;;-1.76;69.63;100226.88;4935607;29;20533;-76
2021/01/28 07:33:25;;;;;;;21.53;12.53;;;;;;;-1.64;68.33;100232.94;4936314;29;20027;-77
2021/01/28 07:36:01;;;;;;;17.37;10.17;;;;;;;-1.59;67.01;100220.69;4947533;29;20386;-77
2021/01/28 07:38:27;;;;;;;18.43;11.70;;;;;;;-1.26;67.24;100227.53;4937804;28;20380;-79
2021/01/28 07:41:01;;;;;;;16.17;11.13;;;;;;;-1.05;67.13;100200.50;4944411;29;20061;-75
2021/01/28 07:43:39;;;;;;;21.30;13.17;;;;;;;-0.68;66.07;100232.91;4955006;28;20035;-76
2021/01/28 07:46:28;;;;;;;183.37;61.93;;;;;;;-0.60;65.95;100211.56;4954827;28;20391;-75
2021/01/28 07:49:16;;;;;;;27.73;18.87;;;;;;;-0.74;65.74;100227.38;4938292;29;20030;-79
2021/01/28 07:51:46;;;;;;;15.03;9.33;;;;;;;-1.11;66.51;100235.47;4945411;29;20295;-75
2021/01/28 07:54:23;;;;;;;14.30;9.57;;;;;;;-1.21;67.91;100245.66;4946293;28;20402;-78
2021/01/28 07:57:00;;;;;;;15.63;10.13;;;;;;;-1.28;68.06;100207.91;4943837;28;20411;-78
2021/01/28 07:59:31;;;;;;;17.43;11.17;;;;;;;-0.98;66.96;100237.34;4935517;29;20043;-78
2021/01/28 08:02:16;;;;;;;16.60;10.50;;;;;;;-0.99;67.09;100230.50;4935356;29;20393;-78
2021/01/28 08:04:59;;;;;;;15.80;10.30;;;;;;;-0.80;66.89;100239.56;4934068;29;20512;-78
2021/01/28 08:07:34;;;;;;;14.87;10.00;;;;;;;-0.80;67.49;100237.03;4934993;28;20042;-78
2021/01/28 08:10:03;;;;;;;20.20;11.80;;;;;;;-0.73;67.38;100231.69;4934796;29;20527;-78
2021/01/28 08:12:30;;;;;;;17.30;10.50;;;;;;;-0.50;65.39;100229.28;4935082;29;20658;-79
2021/01/28 08:14:59;;;;;;;14.13;9.57;;;;;;;-0.70;66.29;100229.38;4935211;29;20066;-78
2021/01/28 08:17:33;;;;;;;18.83;10.43;;;;;;;-0.66;67.07;100231.41;4934950;29;20067;-78
2021/01/28 08:20:19;;;;;;;14.57;9.43;;;;;;;-0.73;67.79;100239.28;4936979;28;20059;-78
2021/01/28 08:22:54;;;;;;;15.97;10.00;;;;;;;-0.67;67.06;100235.56;4916010;29;20035;-78
2021/01/28 08:25:21;;;;;;;20.17;12.20;;;;;;;-0.68;66.91;100215.19;4915770;29;20165;-79
2021/01/28 08:27:47;;;;;;;22.67;12.50;;;;;;;-0.72;67.23;100234.31;4915837;29;20046;-79
2021/01/28 08:30:22;;;;;;;14.10;8.83;;;;;;;-0.83;67.10;100213.19;4915919;29;20032;-78
2021/01/28 08:32:54;;;;;;;15.90;10.23;;;;;;;-0.59;67.15;100250.50;4915728;29;20036;-76
2021/01/28 08:35:49;;;;;;;15.90;9.90;;;;;;;-0.70;66.47;100227.75;4915929;29;20090;-78
2021/01/28 08:38:27;;;;;;;16.00;10.23;;;;;;;-0.79;68.00;100221.94;4916156;29;20040;-78
2021/01/28 08:41:00;;;;;;;17.53;9.87;;;;;;;-0.42;66.93;100244.19;4937229;29;20042;-76
2021/01/28 08:43:26;;;;;;;15.53;9.97;;;;;;;-0.47;66.89;100235.31;4945028;28;20487;-77
2021/01/28 08:46:06;;;;;;;18.40;11.47;;;;;;;-0.17;67.00;100246.97;4944795;28;20055;-78
2021/01/28 08:48:31;;;;;;;15.93;11.10;;;;;;;-0.42;65.67;100218.84;4942551;28;20031;-77
2021/01/28 08:51:08;;;;;;;17.47;11.30;;;;;;;-0.27;65.83;100255.50;4943826;28;20046;-80
2021/01/28 08:53:34;;;;;;;18.77;11.63;;;;;;;-0.22;65.58;100250.78;4940179;29;20024;-81
2021/01/28 08:56:14;;;;;;;16.97;10.70;;;;;;;-0.13;65.41;100250.63;4950881;28;20114;-76
2021/01/28 08:58:41;;;;;;;17.23;10.83;;;;;;;-0.03;65.39;100264.09;4950713;28;20031;-80
2021/01/28 09:01:08;;;;;;;19.10;12.43;;;;;;;-0.08;65.58;100257.78;4945658;28;20030;-78
2021/01/28 09:03:41;;;;;;;23.53;13.43;;;;;;;0.01;65.08;100247.44;4944270;28;20043;-75
2021/01/28 09:06:07;;;;;;;17.70;11.33;;;;;;;-0.56;65.97;100216.13;4943288;29;20032;-78
2021/01/28 09:08:39;;;;;;;17.33;10.83;;;;;;;-0.26;66.16;100254.75;4933896;28;20042;-74
2021/01/28 09:11:09;;;;;;;16.23;11.93;;;;;;;-0.02;67.47;100268.41;4944716;29;20031;-80
2021/01/28 09:13:35;;;;;;;20.00;12.40;;;;;;;-0.12;67.02;100244.78;4953341;28;20570;-78
2021/01/28 09:16:12;;;;;;;16.77;12.27;;;;;;;0.12;65.83;100264.38;4953304;28;20106;-78
2021/01/28 09:18:44;;;;;;;19.50;12.00;;;;;;;0.20;66.21;100270.03;4953354;28;20035;-76
2021/01/28 09:21:19;;;;;;;25.43;14.70;;;;;;;0.20;66.84;100269.13;4953154;28;20035;-78
2021/01/28 09:24:00;;;;;;;18.03;11.10;;;;;;;0.12;66.52;100222.88;4953266;28;20542;-77
2021/01/28 09:26:30;;;;;;;24.87;14.67;;;;;;;0.51;66.49;100253.66;4953390;28;20027;-75
2021/01/28 09:29:14;;;;;;;21.37;12.83;;;;;;;-0.06;66.14;100202.09;4953241;28;20038;-80
2021/01/28 09:31:39;;;;;;;22.03;13.20;;;;;;;0.18;67.80;100253.81;4953599;28;20030;-80
2021/01/28 09:34:26;;;;;;;21.10;13.97;;;;;;;0.36;66.30;100230.53;4953329;28;20023;-78
2021/01/28 09:36:58;;;;;;;18.03;10.77;;;;;;;0.31;65.89;100248.88;4952248;28;20118;-77
2021/01/28 09:39:33;;;;;;;17.13;11.07;;;;;;;-0.07;66.63;100241.81;4933503;29;20036;-74
2021/01/28 09:42:25;;;;;;;19.07;11.73;;;;;;;-0.03;67.59;100241.25;4933332;28;20035;-78
2021/01/28 09:44:52;;;;;;;44.10;21.37;;;;;;;0.11;68.37;100239.78;4969383;28;20090;-75
2021/01/28 09:47:31;;;;;;;28.90;14.03;;;;;;;0.09;67.77;100232.81;4971935;28;20047;-75
2021/01/28 09:50:09;;;;;;;17.83;12.70;;;;;;;0.25;67.66;100237.34;4974146;28;20537;-79
2021/01/28 09:52:37;;;;;;;17.43;10.43;;;;;;;0.34;67.28;100244.78;4974315;28;20114;-79
2021/01/28 09:55:06;;;;;;;15.93;11.07;;;;;;;0.22;67.75;100189.78;4974225;28;20030;-75
2021/01/28 09:57:32;;;;;;;16.05;11.13;;;;;;;0.56;67.54;100232.00;4974251;28;20026;-79
2021/01/28 09:59:58;;;;;;;16.47;11.20;;;;;;;0.40;67.84;100241.06;4974507;28;20053;-80
2021/01/28 10:02:29;;;;;;;17.53;11.07;;;;;;;0.31;67.86;100232.72;4974291;28;20487;-78
2021/01/28 10:04:54;;;;;;;16.83;10.57;;;;;;;0.17;68.35;100230.84;4973884;28;20067;-75
2021/01/28 10:07:20;;;;;;;15.60;10.10;;;;;;;0.22;68.67;100227.00;4974171;28;20518;-78
2021/01/28 10:09:45;;;;;;;17.07;11.63;;;;;;;-0.12;68.58;100154.31;4973804;28;20078;-78
2021/01/28 10:12:13;;;;;;;21.00;14.93;;;;;;;0.34;68.69;100230.44;4973768;28;20027;-78
2021/01/28 10:14:39;;;;;;;18.97;12.50;;;;;;;0.30;69.05;100220.84;4974128;28;20047;-79
2021/01/28 10:17:04;;;;;;;18.10;11.40;;;;;;;0.32;68.47;100216.72;4973682;28;20553;-76
2021/01/28 10:19:29;;;;;;;14.60;8.23;;;;;;;0.15;68.27;100230.75;4966524;28;20472;-77
2021/01/28 10:21:55;;;;;;;17.23;11.83;;;;;;;0.12;69.16;100216.13;4964109;28;20442;-77
2021/01/28 10:24:20;;;;;;;13.83;8.97;;;;;;;0.22;68.14;100220.25;4948340;28;20070;-77
2021/01/28 10:26:46;;;;;;;15.40;10.03;;;;;;;0.32;67.27;100214.19;4947141;29;20035;-77
2021/01/28 10:29:11;;;;;;;15.50;10.17;;;;;;;0.22;67.35;100187.25;4946073;29;20043;-75
2021/01/28 10:31:37;;;;;;;18.90;11.20;;;;;;;0.42;67.44;100213.22;4946178;28;20422;-77
2021/01/28 10:34:02;;;;;;;15.73;10.07;;;;;;;0.29;67.62;100212.31;4946941;28;20406;-74
2021/01/28 10:36:28;;;;;;;16.90;11.50;;;;;;;0.40;68.36;100219.84;4945140;28;20040;-74
2021/01/28 10:38:53;;;;;;;16.57;11.37;;;;;;;0.63;66.37;100203.75;4961252;28;20031;-75
2021/01/28 10:41:19;;;;;;;17.13;10.90;;;;;;;0.62;67.44;100204.50;4946409;29;20027;-77
2021/01/28 10:43:44;;;;;;;30.47;14.53;;;;;;;0.51;67.63;100210.47;4937402;28;20032;-76
2021/01/28 10:46:10;;;;;;;16.10;10.37;;;;;;;0.60;66.42;100176.47;4935472;29;20028;-74
2021/01/28 10:48:38;;;;;;;13.50;8.47;;;;;;;0.79;66.26;100200.66;4941426;29;20080;-76
2021/01/28 10:51:04;;;;;;;14.37;9.63;;;;;;;0.83;66.72;100204.28;4954372;28;20052;-78
2021/01/28 10:53:30;;;;;;;14.90;9.87;;;;;;;0.92;66.39;100207.47;4936634;28;20024;-77
2021/01/28 10:55:56;;;;;;;14.57;9.43;;;;;;;0.81;66.46;100188.94;4936893;29;20031;-74
2021/01/28 10:58:26;;;;;;;19.40;13.07;;;;;;;1.03;67.00;100201.50;4948757;28;20126;-81
2021/01/28 11:00:51;;;;;;;;;;;;;;;1.09;66.32;100198.50;4936875;29;20032;-77
2021/01/28 11:03:17;;;;;;;16.60;10.57;;;;;;;1.12;66.37;100211.41;4935540;28;19915;-75
2021/01/28 11:05:42;;;;;;;15.87;11.27;;;;;;;1.19;65.68;100194.97;4936148;29;20059;-76
2021/01/28 11:08:08;;;;;;;17.93;11.97;;;;;;;1.36;66.43;100194.47;4936430;28;20110;-74
2021/01/28 11:10:34;;;;;;;14.60;9.17;;;;;;;1.44;65.63;100195.84;4936216;29;20472;-72
2021/01/28 11:13:00;;;;;;;17.53;11.53;;;;;;;1.44;65.45;100188.22;4936312;28;20028;-76
2021/01/28 11:15:29;;;;;;;17.63;12.00;;;;;;;1.36;65.05;100148.69;4950215;29;20121;-76
2021/01/28 11:17:54;;;;;;;15.90;9.83;;;;;;;1.55;64.40;100181.34;4936496;29;20047;-78
2021/01/28 11:20:20;;;;;;;17.20;11.33;;;;;;;1.68;65.02;100189.81;4936940;29;20467;-77
2021/01/28 11:22:46;;;;;;;15.73;11.20;;;;;;;1.80;64.08;100179.59;4936383;29;20030;-78
2021/01/28 11:25:16;;;;;;;16.97;11.80;;;;;;;1.89;65.45;100178.50;4936350;29;20118;-76
2021/01/28 11:27:42;;;;;;;15.37;11.17;;;;;;;1.90;64.04;100172.66;4936166;29;20036;-76
2021/01/28 11:30:11;;;;;;;17.07;11.17;;;;;;;1.93;64.12;100177.06;4936125;29;20079;-78
2021/01/28 11:32:37;;;;;;;14.07;9.73;;;;;;;2.02;64.12;100164.06;4936489;28;20059;-79